Preisvergleich
Suchen Sie bei den großen Preisvergleich Portalen gleichzeitig! 


Sitemap25

28.2.2024 2:01

In den Sitemaps finden Sie im Meta-Preisvergleich häufig gefragte Suchworte sortiert nach der Anzahl der Anfragen.

Anfragen Suchwort Ergebnisse Datum Quellen
16bosch professional gas 25 l sfc1242024-02-06 00:07:0221
16cdf26442024-02-12 00:07:0121
16mfq40303302024-02-13 00:07:0121
16abb s201 c161592024-02-01 00:07:0121
16jung schwimmer3752024-02-25 00:07:0121
16la sportiva mythos lady102024-01-24 00:07:0121
16tp-link re210112024-02-23 00:07:0121
16russell hobbs grind brew1042024-02-17 00:07:0121
16canon pgi-2500xl multipack1072024-02-12 00:07:0121
16krinner xl312024-01-28 00:07:0121
16legrand 412631492024-02-04 00:07:0121
16chi cafe balance 450302024-01-22 00:07:0120
16makita 5 ah akku 18v6272024-01-21 00:07:0021
16powerbank 30000mah5202024-01-23 00:07:0121
16vitamin k2 kapseln8652024-02-23 00:07:0121
16hoka mafate4412024-02-17 00:07:0121
16seibel sandalen herren6572024-02-11 00:07:0121
16russische klavierschule band 1472024-02-07 00:07:0221
16kax643me192024-01-22 00:07:0121
16vtc62732024-02-05 00:07:0121
16varta 9v lithium e-block532024-01-27 00:07:0121
16philips 22pfs4031142024-02-23 00:07:0121
16caol ila 12 jahre1042024-02-13 00:07:0121
16philips 22pfs4031 12142024-02-23 00:07:0121
16zeiss fernglas terra ed 8x42482024-02-07 00:07:0221
16powershot sx540 hs392024-01-26 00:07:0121
16canon maxify 51501832024-02-24 00:07:0121
16solestar kontrol242024-02-23 00:07:0121
16horizon ps42742024-02-13 00:07:0121
16salewa litetrek1172024-01-31 00:07:0021
16meran pro6572024-01-21 00:07:0021
16dometic coolfreeze cfx 28172024-02-11 00:07:0121
16asus xg-c100c652024-01-25 00:07:0121
164210201163596142024-01-27 00:07:0120
16fiskars sw-330732024-02-27 00:07:0121
16mb 27501222024-02-25 00:07:0121
16i3 81002512024-01-31 00:07:0021
16nomi evomove492024-02-02 00:07:0121
16hager zb333u25272024-02-14 00:07:0121
16barbour jacke xxl2792024-01-28 00:07:0121
16cocktailaudio x35102024-02-18 00:07:0121
16eukanuba adult breed specific labrador retriever 12kg172024-02-07 00:07:0220
16oppo udp 205172024-02-17 00:07:0121
16seagate barracuda 1tb neu1132024-02-06 00:07:0221
16femannose granulat30182024-01-30 00:07:0122
16becher 10011172024-02-12 00:07:0121
16bosch akku 12v 4,0 ah1202024-02-04 00:07:0121
16seagate barracuda 4 tb 3,51182024-02-15 00:07:0121
16hylo dual1532024-01-29 00:07:0121
16cerave feuchtigkeitslotion2472024-02-13 00:07:0121
16bowers wilkins db4s102024-02-20 00:07:0121
16ipad pro 11 cellular4502024-02-16 00:07:0121
16samsung 65 qled5512024-01-27 00:07:0121
16ubpx800122024-01-27 00:07:0121
16josera light und vital 15 kg102024-01-31 00:07:0021
16ps4 controller dualshock 43222024-02-14 00:07:0121
16sandisk 1tb microsdxc2972024-02-14 00:07:0120
16keba p30 c-series1132024-02-19 00:07:0121
16vaude top case pl322024-02-12 00:07:0121
16hailo öko vario xl442024-01-23 00:07:0121
16bosch powertube 500 horizontal772024-02-28 00:07:0121
16bauknecht bbc 3c26 x geschirrspüler192024-02-14 00:07:0120
16nexen n blue 4season 195 65 r152822024-01-21 00:07:0021
16quick charge 4.01262024-02-04 00:07:0121
16adidas terrex 467882024-02-26 00:07:0121
16trio sambesi2242024-02-19 00:07:0120
16aeg vx6-2-iw-5562024-02-01 00:07:0121
16andis master cordless402024-01-28 00:07:0121
16tapo p1002442024-02-13 00:07:0121
16technisat sonata212024-01-29 00:07:0121
16snup nasenspray 15 ml252024-01-27 00:07:0121
16erdnusskerne 25kg1372024-02-26 00:07:0121
16ac4236 10322024-01-28 00:07:0120
16vitra stuhl .03142024-01-23 00:07:0121
16wolf 2799155122024-02-23 00:07:0121
16darn tough hiker3212024-02-14 00:07:0121
16merino wool knit men632024-02-19 00:07:0121
16samsung a 51 neu782024-02-20 00:07:0120
16g9155002024-02-19 00:07:0121
16gl inet1262024-01-26 00:07:0120
16hercules nos fs122024-01-30 00:07:0121
16fiio btr3k172024-02-26 00:07:0121
16busch müller rückspiegel1352024-02-22 00:07:0121
16rommelsbacher mx 1250622024-02-22 00:07:0121
16senseo hd65531352024-02-04 00:07:0121
16makita le400mp872024-02-05 00:07:0121
16einhell te-cd 18 50 li bl1222024-02-21 00:07:0121
16abl 1w1101432024-01-22 00:07:0121
16gu32t5379482024-01-27 00:07:0121
16technisat 10 ir792024-02-09 00:07:0121
16cellavita3922024-01-22 00:07:0121
16canon r6 body542024-02-14 00:07:0121
16xbox serie x10802024-01-29 00:07:0121
16beurer tl 45 perfect day162024-01-23 00:07:0121
16marantz sr 7015212024-02-21 00:07:0121
16salmon12732024-01-27 00:07:0122
16algovir effekt erkältungsspray602024-02-14 00:07:0120
16baldurs gate 32132024-02-09 00:07:0121
16oris traveller 292024-02-14 00:07:0121
16dvc750lzx3462024-01-21 00:07:0021
16shelly addon692024-02-14 00:07:0121
16dell latitude 74102872024-02-05 00:07:0121
16sn43hs41te212024-01-26 00:07:0121
16johannisbeersaft682024-02-03 00:07:0121
16dtd171572024-02-12 00:07:0121
16valkental - 3in1 fahrradtasche1072024-02-27 00:07:0121
16abl wallbox 11kw1812024-02-23 00:07:0121
16dun461wz242024-02-13 00:07:0121
16ninja af160eu792024-02-27 00:07:0121
16oneplus 9 256gb732024-01-20 00:07:0121
16ipad pro 12,9 256 2021532024-01-28 00:07:0121
1627gp850-b242024-01-30 00:07:0121
16windows 11 pro 64 bit deutsch1702024-02-07 00:07:0221
16playstation 5 ps5 disc edition3082024-02-11 00:07:0121
16siemens gs54nawcv272024-01-30 00:07:0121
16bks8214w912024-02-19 00:07:0121
16sennheiser cx true wireless1542024-02-10 00:07:0121
16sm-g980f ds1282024-02-14 00:07:0121
1602026021332024-01-20 00:07:0121
16xplora xgo 21992024-02-28 00:07:0121
16galaxy smarttag2702024-02-14 00:07:0121
16balkonkraftwerk 800 watt2862024-02-27 00:07:0121
16tomtom go camper max882024-02-22 00:07:0121
16puzzletisch852024-01-22 00:07:0121
16asus rog phone 64212024-01-28 00:07:0121
16gsr 18v-150 c1862024-01-23 00:07:0121
16hoka mach 54302024-02-25 00:07:0121
16brother mfc-j6940dw2362024-02-11 00:07:0120
16hoka mafate speed 43512024-02-17 00:07:0121
16jbl wave 200 tws1142024-02-13 00:07:0121
16iphone 14 pro max 256gb3362024-02-03 00:07:0121
16meta quest pro2192024-02-22 00:07:0121
16lg 43nano769qa282024-02-03 00:07:0120
16ps4 fifa 231272024-01-23 00:07:0121
16eufy solar panel2512024-02-21 00:07:0121
16speedcomfort 3.01002024-02-06 00:07:0221
16avm x61492024-02-20 00:07:0121
16infiray p2 pro632024-02-06 00:07:0221
16z flip 43382024-01-20 00:07:0120
16wetterstation 7 in 11872024-02-07 00:07:0221
16lego 103132232024-02-04 00:07:0121
16flair 582762024-02-23 00:07:0121
16buds2 pro4172024-01-26 00:07:0121
16starmoney 14312024-02-28 01:13:0021
16yamaha tw-e3c842024-02-18 00:07:0121
16fritz 3000 ax1332024-01-27 00:07:0121
16lg oled65c37la372024-02-28 00:07:0121
16ipad pro 2022 12,95192024-02-08 00:07:0121
16thule epos1082024-01-23 00:07:0121
16microsoft surface pro 9 i74972024-02-21 00:07:0121
16jbl tune 770nc1112024-01-25 00:07:0121
16schleich 42619292024-02-11 00:07:0121
16fujifilm x-s201632024-02-04 00:07:0120
16liberty 4 nc1842024-02-14 00:07:0121
16samsung a 54 5g4952024-02-22 00:07:0121
16siemens wm14n2g3232024-02-14 00:07:0121
16badetuchhalter 604422024-01-29 00:07:0121
16on the roger advantage7712024-01-20 00:07:0121
16apple watch ultra 2 ocean2752024-02-01 00:07:0121
16hörmann ecostar typ 33012024-02-08 00:07:0121
16lego 210601342024-02-19 00:07:0121
16dji mini 44962024-02-01 00:07:0120
16samsung smarttag 23032024-02-14 00:07:0121
16samsung s23 ultra 5122742024-01-22 00:07:0121
16bosch wan282h3192024-02-23 00:07:0121
16spiderman 2 ps5652024-01-22 00:07:0121
16motorola moto g842702024-02-03 00:07:0120
16akkuschrauber 12v bürstenlos402024-02-12 00:07:0124
16nivona cube552024-02-07 00:07:0221
16hoka skyline-float x822024-02-27 00:07:0121
16oral-b io 46252024-01-27 00:07:0121
16buhl wiso steuer 2024752024-02-26 00:07:0121
16montblanc legend spirit 100 ml542024-02-16 00:07:0121
16reebok laufschuh energen lux1412024-01-24 00:07:0121
16salomon wanderschuh x raise3152024-01-26 00:07:0121
16the north face wanderschuh cragstone3082024-01-26 00:07:0121
16tx 276192024-01-29 00:07:0121
16trump aufkleber3102024-01-30 00:07:0121
16galaxy s24 hülle5522024-02-05 00:07:0121
16hp 8600 drucker3062024-02-04 00:07:0121
16festplatte 20 tb6792024-02-15 00:07:0121
16unreal dvd1252024-02-07 00:07:0221
16columbia softshelljacke3202024-02-08 00:07:0121
16schiesser unterhose herren weiß3202024-02-09 00:07:0121
16bravo hits 124352024-02-28 00:07:0121
16bambus schublade9792024-02-13 00:07:0121
16jack wolfskin daunenjacke passamani3132024-02-13 00:07:0121
16xiaomi redmi note 13 pro 5g 256 gb2152024-02-28 01:56:2521
16happy cat land geflügel3112024-02-21 00:07:0121
16granatapfel frisch3192024-02-22 00:07:0121
16schöffel parka sardegna3192024-02-23 00:07:0121
16baldessarini herren jeans7992024-02-23 00:07:0121
16mizuno wave skyrise 52212024-02-24 00:07:0121
16samsung s24 tpu hülle3202024-02-27 00:07:0121
15reinigungsalkohol1842024-02-23 00:07:0121
15siemens s 35 i732024-02-07 00:07:0220
15297901872024-01-28 00:07:0121
15ölpreise232024-02-21 00:07:0121
15bleuet 206 plus432024-01-27 00:07:0121
15wand- und bodenanker2592024-02-24 00:07:0121
15siemens insel esse82024-02-15 00:07:0120
15weber grill elektro3682024-02-16 00:07:0120
15kristall deckenleuchte10652024-02-18 00:07:0121
15fudge12692024-02-07 00:07:0221
15gira 021212672024-01-25 00:07:0121
15ferro sanol 100872024-01-27 00:07:0119
15elektrischer rolladen gurtwickler1172024-02-28 00:07:0121
15taifun tofu192024-02-02 00:07:0121
15tai ginseng1032024-01-30 00:07:0121
15liquid glass set732024-02-26 00:07:0121
15noctua nf-s12a1522024-01-29 00:07:0121
15bergamont horizon 9302024-02-12 00:07:0121
15zyxel vdsl21342024-01-27 00:07:0121
15victorinox nagelschere422024-01-20 00:07:0121
15lonka532024-02-07 00:07:0221
15wandspiegel beleuchtet2782024-01-23 00:07:0121
15schmalz7872024-01-27 00:07:0121
15van nelle halfzware112024-02-28 00:07:0121
15glühbirne e149212024-01-29 00:07:0121
15babyfläschchen1392024-02-19 00:07:0121
15conti 205 55 r163162024-02-07 00:07:0220
15biotherm duschgel2552024-02-19 00:07:0121
15voltcraft endoskop7132024-01-28 00:07:0121
15intertechno itk-200192024-02-16 00:07:0121
15efasit fußbalsam132024-01-28 00:07:0120
15rosenblüten8792024-02-25 00:07:0121
15185 80 r145192024-02-16 00:07:0121
15molybdän9042024-01-26 00:07:0121
15zahnbürste elektrisch schall6452024-02-13 00:07:0120
15additiva heißer holunder312024-02-02 00:07:0120
15cli-526gy1462024-02-01 00:07:0121
15haupt hemd5452024-02-07 00:07:0221
15weihrauchöl1872024-02-20 00:07:0119
15sennheiser ba300392024-02-14 00:07:0121
15pawz4642024-01-30 00:07:0121
15radio bluetooth11972024-01-29 00:07:0121
15mucosolvan retardkapseln182024-02-07 00:07:0221
15carnosin pulver612024-02-07 00:07:0221
15the north face verto142024-01-24 00:07:0121
15makita vc1310lx1422024-02-24 00:07:0121
15ec 850.m262024-01-28 00:07:0121
15hugo boss bottled 200ml edt702024-02-14 00:07:0121
15fuba daa 780 a912024-02-09 00:07:0121
15metabo bandschleifer bae 75862024-02-24 00:07:0121
15ut611112024-01-24 00:07:0121
15ravl2012024-01-28 00:07:0121
15audio-technica at-lp120642024-01-23 00:07:0119
15looping louie neu1022024-02-01 00:07:0121
15magnatec 5w-40 c33092024-02-13 00:07:0121
15cavilon 3m5012024-01-25 00:07:0121
15nasenspray ratiopharm erwachsene 15ml182024-02-08 00:07:0121
15unterlegscheiben11512024-02-25 00:07:0124
15durimplant implantat pflege gel482024-01-23 00:07:0121
15trikot fc liverpool4522024-01-31 00:07:0021
15wmf gemüsehobel top tools162024-02-23 00:07:0121
15constructa einbaukühlschrank322024-01-25 00:07:0120
15crataegutt 450 mg1112024-01-31 00:07:0021
15joop wohndecke doubleface6202024-01-23 00:07:0121
15pass14292024-01-27 00:07:0120
15verbundschaumstoff 4cm182024-02-13 00:07:0121
15fluke 325802024-02-28 00:07:0121
15adblue pumpe3412024-02-10 00:07:0121
15msm schwefelpulver372024-01-22 00:07:0121
15wmf zerkleinerer1452024-02-21 00:07:0121
15pondomax eco 2500432024-02-13 00:07:0121
15logitech mk710 tastatur und maus1482024-02-21 00:07:0121
15eltako fud61npn692024-02-27 00:07:0121
15hyperx predator592024-02-26 00:07:0121
15linola shampoo forte532024-02-27 00:07:0121
15happy dog junior3202024-02-01 00:07:0121
15knauf perligran602024-02-09 00:07:0121
15bgs 60100472024-02-18 00:07:0121
15gigaset r630h pro672024-02-23 00:07:0121
15küchenmaschine silvercrest2622024-02-18 00:07:0121
15metabo ks 305692024-02-19 00:07:0121
15pc desktop i-52582024-01-25 00:07:0121
15nizn ladegerät1612024-02-08 00:07:0121
15bosch twk3a011752024-02-21 00:07:0121
15ga50401432024-02-02 00:07:0121
15mey dry cotton herren6462024-02-12 00:07:0121
15super seni quatro medium522024-02-27 00:07:0121
15strampelpeter flockenwindeln 2862024-02-11 00:07:0121
15schwalbe marathon 28 plus5242024-02-12 00:07:0119
15addi express professional362024-02-03 00:07:0121
15silvercrest dab922024-01-21 00:07:0021
15fsn 8001292024-02-04 00:07:0121
15karcher k21642024-02-01 00:07:0121
15ddr4 64gb11802024-02-17 00:07:0121
15clarks trigenic flex862024-02-13 00:07:0121
15high peak talos 4412024-02-10 00:07:0121
15adidas performance laufjacke2752024-02-07 00:07:0221
15seresto hund gross202024-02-08 00:07:0120
15staubsauger siemens vsq5x12302682024-01-22 00:07:0121
15redefine5782024-02-01 00:07:0121
15soap dispenser4782024-02-25 00:07:0121
15vorwerk handstaubsauger692024-01-23 00:07:0121
15canon sx610 hs362024-02-18 00:07:0121
15bodygroom 5000822024-02-19 00:07:0121
15playseat evolution m292024-01-29 00:07:0121
15sc2305112024-02-16 00:07:0121
15microsoft office 2016 standard822024-01-26 00:07:0121
15grohe 34558000512024-02-17 00:07:0121
15fritz 12402152024-01-23 00:07:0121
15av kabel ps33782024-01-23 00:07:0121
15brooks gp1242024-01-30 00:07:0121
15dado sens extroderm shampoo292024-02-07 00:07:0221
15hoka clifton9362024-02-12 00:07:0121
15gambamix192024-02-09 00:07:0121
15cerascreen vitamin d test542024-02-15 00:07:0121
15leda colona172024-01-23 00:07:0120
15m720 triathlon1022024-01-21 00:07:0021
15heizkörper 900x1000 33252024-02-20 00:07:0120
15adidas campus grey2872024-02-20 00:07:0121
15google daydream view82024-02-19 00:07:0121
15keo blade carbon1202024-02-21 00:07:0121
15comedes lavaero 150182024-01-30 00:07:0121
15gdata total security292024-02-14 00:07:0121
15ksu 4011102024-02-15 00:07:0121
15magura mt trail sport1132024-02-17 00:07:0121
15coffee gator kaffeedose362024-02-07 00:07:0221
15fiskars schneidgiraffe upx861222024-02-19 00:07:0121
15gardena gartensäge 300 pp992024-02-18 00:07:0121
15samsung hw k950112024-02-08 00:07:0120
15mfc l2710dn1052024-01-29 00:07:0120
15fritzbox 6820 lte242024-02-10 00:07:0121
15medion md 15501 mikrowelle302024-01-20 00:07:0121
15thinkpad x2803612024-02-09 00:07:0121
15gbl 18v-120742024-02-15 00:07:0121
15rowenta rh8155492024-02-01 00:07:0121
15gas 18v-1 professional662024-02-23 00:07:0121
15win10 pro lizenz2492024-01-24 00:07:0120
15canephron uno 90 st182024-02-26 00:07:0121
15cf540a3312024-02-06 00:07:0220
15casio fx-991de x classwiz582024-02-14 00:07:0120
15tesa klebenagel7632024-02-09 00:07:0120
15siemens te651509de212024-02-07 00:07:0220
15go-echarger 22kw212024-01-24 00:07:0121
15nivona 769322024-02-27 00:07:0121
15scheppach hc06242024-02-20 00:07:0121
15victron blue smart ip 653892024-02-28 00:07:0121
15nivona 759232024-02-27 00:07:0121
15epson xp7100712024-02-07 00:07:0221
15jabra 7511182024-01-31 00:07:0021
15philips 329p9h552024-01-30 00:07:0121
15vitamix e310312024-02-28 00:07:0121
15abus pedelec 2.04772024-02-18 00:07:0121
15sony 200-600542024-02-20 00:07:0121
15hailo s100 profilot762024-02-17 00:07:0121
15regulatpro arthro 350192024-02-10 00:07:0120
15brother pt-e550wvp1362024-02-15 00:07:0121
15eufab 16421242024-02-14 00:07:0121
15giesswein merino wool knit women502024-02-26 00:07:0121
15oberwerth772024-02-04 00:07:0120
15hp e273432024-02-02 00:07:0122
15svs sb-2000 pro252024-01-23 00:07:0121
15technisat 370 cd bt1142024-01-23 00:07:0121
15epson xp 31001432024-01-31 00:07:0020
15thealoz duo 3x10182024-02-18 00:07:0121
15silence s011812024-01-22 00:07:0120
15samsung ssd t7 1tb3362024-02-13 00:07:0121
15jvc kd-db912bt3162024-01-25 00:07:0121
15dp 607102024-02-15 00:07:0120
15caso vacuchef 40322024-02-09 00:07:0121
15dir3200sbt932024-02-10 00:07:0120
anzahl 364 xml 364


Preisvergleich
Wichtige Information zu den Preisangaben: Alle Preise verstehen sich inklusive der gesetzlichen Mehrwertsteuer und gegebebenfalls zuzüglich Versandkosten. Zum Zeitpunkt des Kaufes ist der aktuell auf der Händlerseite angegebene Preis maßgeblich. Bitte beachten Sie, dass aus technischen Gründen zeitweise Abweichungen, des Preises, der Lieferbarkeit und der Versandkosten entstehen können.

Affiliate-Offenlegung: Wenn Sie auf dieser Website auf Links zu verschiedenen Händlern klicken und einen Kauf tätigen, kann dies dazu führen, dass diese Website eine Provision erhält. Zu den Partnerprogrammen und Partnerschaften gehört unter anderem das eBay Partner Network. Als Amazon-Partner verdienen wir an qualifizierten Verkäufen.
Impressum / Datenschutzerklärung     Presse     Shops    
Copyright © 2003-2023 MetaMind GmbH